PWSweather.com
Personal Weather Stations
Station Observations
KTXDECATUR
Wildwood, Decatur, TX 76234

WildwoodDecatur, TX 76234

Lat: 33.2634, Lon: -97.6651

Elevation: 800

Station Type: Davis Vantage Pro 2

http://weather.wildwoodnaturist.com

Latest ConditionsUpdated 6:10:01 PM CDT Tuesday, Mar 26, 2019
Currently Today's Max Today's Min Today's Average
Temperature 68.1°F20.1°C 69.8°F21.0°C 43.0°F6.1°C 56.5°F13.6°C
Dew Point 42.2°F5.7°C 48.9°F9.4°C 40.8°F4.9°C 44.9°F7.2°C
Winds 6.9 mph ENE11.1 kmh ENE 10.4 mph -16.7 kmh - - 4.7 mph 7.6 kmh
Wind Gusts 10.4 mph16.7 kmh 15.0 mph24.1 kmh - -
Humidity 39% 93% 39% 68%
Pressure 30.22 in1023.4 mb 30.36 in1028.1 mb 30.22 in1023.4 mb -
Hour Temp Dew Point Humidity Winds Wind Gusts Pressure Precip Precip Rate Daily Precip Total
06:10 PM 68.1°F20.1°C 42.2°F5.7°C 39% 6.9 mph ENE11.1 kmh ENE 10.4 mph16.7 kmh 30.22 in1023.4 mb - 0.00 in0.0 mm 0.00 in0.0 mm
06:00 PM 68.3°F20.2°C 43.0°F6.1°C 40% 9.2 mph ENE14.8 kmh ENE 10.4 mph16.7 kmh 30.22 in1023.4 mb - 0.00 in0.0 mm 0.00 in0.0 mm
05:50 PM 68.8°F20.4°C 43.5°F6.4°C 40% 5.8 mph E9.3 kmh E 9.2 mph14.8 kmh 30.22 in1023.4 mb - 0.00 in0.0 mm 0.00 in0.0 mm
05:45 PM 68.9°F20.5°C 42.9°F6.1°C 39% 4.6 mph ENE7.4 kmh ENE 9.2 mph14.8 kmh 30.22 in1023.4 mb - 0.00 in0.0 mm 0.00 in0.0 mm
05:40 PM 68.7°F20.4°C 42.8°F6.0°C 39% 6.9 mph ENE11.1 kmh ENE 9.2 mph14.8 kmh 30.22 in1023.4 mb - 0.00 in0.0 mm 0.00 in0.0 mm
05:30 PM 69.2°F20.7°C 44.5°F6.9°C 41% 6.9 mph NE11.1 kmh NE 6.9 mph11.1 kmh 30.23 in1023.7 mb - 0.00 in0.0 mm 0.00 in0.0 mm
05:20 PM 69.1°F20.6°C 43.7°F6.5°C 40% 8.1 mph E13.0 kmh E 15.0 mph24.1 kmh 30.23 in1023.7 mb - 0.00 in0.0 mm 0.00 in0.0 mm
05:15 PM 68.9°F20.5°C 43.6°F6.4°C 40% 5.8 mph E9.3 kmh E 10.4 mph16.7 kmh 30.23 in1023.7 mb - 0.00 in0.0 mm 0.00 in0.0 mm
05:10 PM 69.3°F20.7°C 43.9°F6.6°C 40% 6.9 mph ENE11.1 kmh ENE 9.2 mph14.8 kmh 30.23 in1023.7 mb - 0.00 in0.0 mm 0.00 in0.0 mm
05:00 PM 69.5°F20.8°C 46.7°F8.2°C 44% 10.4 mph E16.7 kmh E 12.7 mph20.4 kmh 30.23 in1023.7 mb - 0.00 in0.0 mm 0.00 in0.0 mm
04:50 PM 69.4°F20.8°C 45.9°F7.7°C 43% 9.2 mph NE14.8 kmh NE 10.4 mph16.7 kmh 30.24 in1024.0 mb - 0.00 in0.0 mm 0.00 in0.0 mm
04:45 PM 69.5°F20.8°C 45.4°F7.4°C 42% 8.1 mph ENE13.0 kmh ENE 8.1 mph13.0 kmh 30.24 in1024.0 mb - 0.00 in0.0 mm 0.00 in0.0 mm
04:40 PM 69.3°F20.7°C 47.0°F8.3°C 45% 6.9 mph E11.1 kmh E 10.4 mph16.7 kmh 30.24 in1024.0 mb - 0.00 in0.0 mm 0.00 in0.0 mm
04:30 PM 68.9°F20.5°C 44.9°F7.2°C 42% 6.9 mph E11.1 kmh E 8.1 mph13.0 kmh 30.24 in1024.0 mb - 0.00 in0.0 mm 0.00 in0.0 mm
04:20 PM 68.4°F20.2°C 45.6°F7.6°C 44% 9.2 mph E14.8 kmh E 13.8 mph22.2 kmh 30.25 in1024.4 mb - 0.00 in0.0 mm 0.00 in0.0 mm
04:15 PM 68.5°F20.3°C 45.1°F7.3°C 43% 5.8 mph NE9.3 kmh NE 8.1 mph13.0 kmh 30.25 in1024.4 mb - 0.00 in0.0 mm 0.00 in0.0 mm
04:10 PM 69.8°F21.0°C 46.9°F8.3°C 44% 5.8 mph ENE9.3 kmh ENE 6.9 mph11.1 kmh 30.25 in1024.4 mb - 0.00 in0.0 mm 0.00 in0.0 mm
04:00 PM 69.0°F20.6°C 45.5°F7.5°C 43% 3.5 mph ENE5.6 kmh ENE 8.1 mph13.0 kmh 30.25 in1024.4 mb - 0.00 in0.0 mm 0.00 in0.0 mm
03:50 PM 68.6°F20.3°C 45.8°F7.7°C 44% 4.6 mph SE7.4 kmh SE 8.1 mph13.0 kmh 30.26 in1024.7 mb - 0.00 in0.0 mm 0.00 in0.0 mm
03:45 PM 68.2°F20.1°C 46.0°F7.8°C 45% 2.3 mph ENE3.7 kmh ENE 8.1 mph13.0 kmh 30.26 in1024.7 mb - 0.00 in0.0 mm 0.00 in0.0 mm
03:40 PM 68.4°F20.2°C 46.2°F7.9°C 45% 4.6 mph ESE7.4 kmh ESE 8.1 mph13.0 kmh 30.26 in1024.7 mb - 0.00 in0.0 mm 0.00 in0.0 mm
03:30 PM 68.8°F20.4°C 46.6°F8.1°C 45% 8.1 mph E13.0 kmh E 10.4 mph16.7 kmh 30.26 in1024.7 mb - 0.00 in0.0 mm 0.00 in0.0 mm
03:20 PM 68.1°F20.1°C 46.5°F8.1°C 46% 5.8 mph NE9.3 kmh NE 9.2 mph14.8 kmh 30.27 in1025.1 mb - 0.00 in0.0 mm 0.00 in0.0 mm
03:15 PM 68.3°F20.2°C 46.1°F7.8°C 45% 6.9 mph E11.1 kmh E 9.2 mph14.8 kmh 30.27 in1025.1 mb - 0.00 in0.0 mm 0.00 in0.0 mm
03:10 PM 68.8°F20.4°C 47.2°F8.4°C 46% 8.1 mph NNE13.0 kmh NNE 9.2 mph14.8 kmh 30.27 in1025.1 mb - 0.00 in0.0 mm 0.00 in0.0 mm
03:00 PM 68.6°F20.3°C 47.0°F8.3°C 46% 8.1 mph NE13.0 kmh NE 10.4 mph16.7 kmh 30.27 in1025.1 mb - 0.00 in0.0 mm 0.00 in0.0 mm
02:50 PM 68.3°F20.2°C 46.1°F7.8°C 45% 6.9 mph NNE11.1 kmh NNE 10.4 mph16.7 kmh 30.28 in1025.4 mb - 0.00 in0.0 mm 0.00 in0.0 mm
02:45 PM 67.9°F19.9°C 46.9°F8.3°C 47% 8.1 mph N13.0 kmh N 11.5 mph18.5 kmh 30.28 in1025.4 mb - 0.00 in0.0 mm 0.00 in0.0 mm
02:40 PM 68.1°F20.1°C 47.1°F8.4°C 47% 5.8 mph E9.3 kmh E 8.1 mph13.0 kmh 30.28 in1025.4 mb - 0.00 in0.0 mm 0.00 in0.0 mm
02:30 PM 67.4°F19.7°C 44.7°F7.1°C 44% 4.6 mph N7.4 kmh N 9.2 mph14.8 kmh 30.29 in1025.7 mb - 0.00 in0.0 mm 0.00 in0.0 mm
02:20 PM 67.9°F19.9°C 47.5°F8.6°C 48% 9.2 mph NNE14.8 kmh NNE 11.5 mph18.5 kmh 30.29 in1025.7 mb - 0.00 in0.0 mm 0.00 in0.0 mm
02:15 PM 67.5°F19.7°C 47.1°F8.4°C 48% 5.8 mph E9.3 kmh E 6.9 mph11.1 kmh 30.29 in1025.7 mb - 0.00 in0.0 mm 0.00 in0.0 mm
02:10 PM 66.5°F19.2°C 45.6°F7.6°C 47% 2.3 mph NE3.7 kmh NE 10.4 mph16.7 kmh 30.29 in1025.7 mb - 0.00 in0.0 mm 0.00 in0.0 mm
02:00 PM 67.1°F19.5°C 47.3°F8.5°C 49% 8.1 mph NE13.0 kmh NE 8.1 mph13.0 kmh 30.29 in1025.7 mb - 0.00 in0.0 mm 0.00 in0.0 mm
01:50 PM 66.7°F19.3°C 45.9°F7.7°C 47% 8.1 mph N13.0 kmh N 10.4 mph16.7 kmh 30.30 in1026.1 mb - 0.00 in0.0 mm 0.00 in0.0 mm
01:45 PM 66.6°F19.2°C 47.9°F8.8°C 51% 8.1 mph ENE13.0 kmh ENE 12.7 mph20.4 kmh 30.30 in1026.1 mb - 0.00 in0.0 mm 0.00 in0.0 mm
01:40 PM 66.9°F19.4°C 47.1°F8.4°C 49% 2.3 mph NNE3.7 kmh NNE 5.8 mph9.3 kmh 30.30 in1026.1 mb - 0.00 in0.0 mm 0.00 in0.0 mm
01:30 PM 66.0°F18.9°C 46.9°F8.3°C 50% 8.1 mph E13.0 kmh E 11.5 mph18.5 kmh 30.31 in1026.4 mb - 0.00 in0.0 mm 0.00 in0.0 mm
01:20 PM 65.3°F18.5°C 46.2°F7.9°C 50% 8.1 mph ENE13.0 kmh ENE 10.4 mph16.7 kmh 30.31 in1026.4 mb - 0.00 in0.0 mm 0.00 in0.0 mm
01:15 PM 65.4°F18.6°C 47.3°F8.5°C 52% 3.5 mph ENE5.6 kmh ENE 6.9 mph11.1 kmh 30.31 in1026.4 mb - 0.00 in0.0 mm 0.00 in0.0 mm
01:10 PM 65.7°F18.7°C 46.6°F8.1°C 50% 5.8 mph E9.3 kmh E 5.8 mph9.3 kmh 30.32 in1026.8 mb - 0.00 in0.0 mm 0.00 in0.0 mm
01:00 PM 65.0°F18.3°C 46.9°F8.3°C 52% 6.9 mph ENE11.1 kmh ENE 8.1 mph13.0 kmh 30.32 in1026.8 mb - 0.00 in0.0 mm 0.00 in0.0 mm
12:50 PM 64.7°F18.2°C 46.7°F8.2°C 52% 2.3 mph NE3.7 kmh NE 5.8 mph9.3 kmh 30.33 in1027.1 mb - 0.00 in0.0 mm 0.00 in0.0 mm
12:45 PM 64.4°F18.0°C 47.4°F8.6°C 54% 9.2 mph NNE14.8 kmh NNE 10.4 mph16.7 kmh 30.33 in1027.1 mb - 0.00 in0.0 mm 0.00 in0.0 mm
12:40 PM 64.5°F18.1°C 48.9°F9.4°C 57% 9.2 mph NE14.8 kmh NE 11.5 mph18.5 kmh 30.33 in1027.1 mb - 0.00 in0.0 mm 0.00 in0.0 mm
12:30 PM 63.7°F17.6°C 48.2°F9.0°C 57% 4.6 mph E7.4 kmh E 6.9 mph11.1 kmh 30.34 in1027.4 mb - 0.00 in0.0 mm 0.00 in0.0 mm
12:20 PM 63.5°F17.5°C 48.0°F8.9°C 57% 4.6 mph NE7.4 kmh NE 8.1 mph13.0 kmh 30.34 in1027.4 mb - 0.00 in0.0 mm 0.00 in0.0 mm
12:15 PM 63.3°F17.4°C 47.3°F8.5°C 56% 5.8 mph ENE9.3 kmh ENE 8.1 mph13.0 kmh 30.34 in1027.4 mb - 0.00 in0.0 mm 0.00 in0.0 mm
12:10 PM 63.3°F17.4°C 48.3°F9.1°C 58% 6.9 mph NE11.1 kmh NE 8.1 mph13.0 kmh 30.34 in1027.4 mb - 0.00 in0.0 mm 0.00 in0.0 mm
12:00 PM 62.5°F16.9°C 47.1°F8.4°C 57% 3.5 mph NNE5.6 kmh NNE 5.8 mph9.3 kmh 30.35 in1027.8 mb - 0.00 in0.0 mm 0.00 in0.0 mm
11:50 AM 61.8°F16.6°C 47.3°F8.5°C 59% 6.9 mph NE11.1 kmh NE 12.7 mph20.4 kmh 30.35 in1027.8 mb - 0.00 in0.0 mm 0.00 in0.0 mm
11:45 AM 61.1°F16.2°C 47.1°F8.4°C 60% 3.5 mph ENE5.6 kmh ENE 10.4 mph16.7 kmh 30.35 in1027.8 mb - 0.00 in0.0 mm 0.00 in0.0 mm
11:40 AM 61.5°F16.4°C 46.5°F8.1°C 58% 3.5 mph E5.6 kmh E 4.6 mph7.4 kmh 30.35 in1027.8 mb - 0.00 in0.0 mm 0.00 in0.0 mm
11:30 AM 61.8°F16.6°C 47.3°F8.5°C 59% 4.6 mph NE7.4 kmh NE 5.8 mph9.3 kmh 30.36 in1028.1 mb - 0.00 in0.0 mm 0.00 in0.0 mm
11:20 AM 60.5°F15.8°C 47.0°F8.3°C 61% 4.6 mph ENE7.4 kmh ENE 6.9 mph11.1 kmh 30.36 in1028.1 mb - 0.00 in0.0 mm 0.00 in0.0 mm
11:15 AM 60.8°F16.0°C 46.4°F8.0°C 59% 6.9 mph NE11.1 kmh NE 8.1 mph13.0 kmh 30.36 in1028.1 mb - 0.00 in0.0 mm 0.00 in0.0 mm
11:10 AM 60.4°F15.8°C 47.3°F8.5°C 62% 5.8 mph E9.3 kmh E 9.2 mph14.8 kmh 30.36 in1028.1 mb - 0.00 in0.0 mm 0.00 in0.0 mm
11:00 AM 59.9°F15.5°C 47.2°F8.4°C 63% 8.1 mph ENE13.0 kmh ENE 8.1 mph13.0 kmh 30.36 in1028.1 mb - 0.00 in0.0 mm 0.00 in0.0 mm
10:50 AM 60.0°F15.6°C 46.5°F8.1°C 61% 9.2 mph NNE14.8 kmh NNE 10.4 mph16.7 kmh 30.36 in1028.1 mb - 0.00 in0.0 mm 0.00 in0.0 mm
10:45 AM 59.6°F15.3°C 46.9°F8.3°C 63% 8.1 mph N13.0 kmh N 10.4 mph16.7 kmh 30.35 in1027.8 mb - 0.00 in0.0 mm 0.00 in0.0 mm
10:40 AM 59.2°F15.1°C 47.0°F8.3°C 64% 4.6 mph NE7.4 kmh NE 8.1 mph13.0 kmh 30.35 in1027.8 mb - 0.00 in0.0 mm 0.00 in0.0 mm
10:30 AM 59.1°F15.1°C 46.9°F8.3°C 64% 9.2 mph NE14.8 kmh NE 11.5 mph18.5 kmh 30.36 in1028.1 mb - 0.00 in0.0 mm 0.00 in0.0 mm
10:20 AM 58.3°F14.6°C 45.4°F7.4°C 62% 4.6 mph NE7.4 kmh NE 8.1 mph13.0 kmh 30.35 in1027.8 mb - 0.00 in0.0 mm 0.00 in0.0 mm
10:15 AM 57.9°F14.4°C 45.8°F7.7°C 64% 5.8 mph NE9.3 kmh NE 8.1 mph13.0 kmh 30.35 in1027.8 mb - 0.00 in0.0 mm 0.00 in0.0 mm
10:10 AM 58.0°F14.4°C 45.5°F7.5°C 63% 8.1 mph NE13.0 kmh NE 10.4 mph16.7 kmh 30.35 in1027.8 mb - 0.00 in0.0 mm 0.00 in0.0 mm
10:00 AM 57.4°F14.1°C 45.7°F7.6°C 65% 9.2 mph NE14.8 kmh NE 11.5 mph18.5 kmh 30.35 in1027.8 mb - 0.00 in0.0 mm 0.00 in0.0 mm
09:50 AM 56.9°F13.8°C 45.7°F7.6°C 66% 9.2 mph NE14.8 kmh NE 13.8 mph22.2 kmh 30.35 in1027.8 mb - 0.00 in0.0 mm 0.00 in0.0 mm
09:45 AM 56.6°F13.7°C 46.1°F7.8°C 68% 8.1 mph NE13.0 kmh NE 10.4 mph16.7 kmh 30.34 in1027.4 mb - 0.00 in0.0 mm 0.00 in0.0 mm
09:40 AM 56.2°F13.4°C 45.3°F7.4°C 67% 5.8 mph NE9.3 kmh NE 8.1 mph13.0 kmh 30.34 in1027.4 mb - 0.00 in0.0 mm 0.00 in0.0 mm
09:30 AM 56.1°F13.4°C 45.7°F7.6°C 68% 10.4 mph NE16.7 kmh NE 9.2 mph14.8 kmh 30.34 in1027.4 mb - 0.00 in0.0 mm 0.00 in0.0 mm
09:20 AM 55.5°F13.1°C 46.2°F7.9°C 71% 5.8 mph NE9.3 kmh NE 12.7 mph20.4 kmh 30.35 in1027.8 mb - 0.00 in0.0 mm 0.00 in0.0 mm
09:15 AM 55.2°F12.9°C 46.0°F7.8°C 71% 5.8 mph NE9.3 kmh NE 6.9 mph11.1 kmh 30.34 in1027.4 mb - 0.00 in0.0 mm 0.00 in0.0 mm
09:10 AM 54.9°F12.7°C 46.4°F8.0°C 73% 4.6 mph NE7.4 kmh NE 10.4 mph16.7 kmh 30.34 in1027.4 mb - 0.00 in0.0 mm 0.00 in0.0 mm
09:00 AM 52.6°F11.4°C 47.3°F8.5°C 82% 4.6 mph NE7.4 kmh NE 8.1 mph13.0 kmh 30.34 in1027.4 mb - 0.00 in0.0 mm 0.00 in0.0 mm
08:50 AM 50.7°F10.4°C 46.0°F7.8°C 84% 3.5 mph NE5.6 kmh NE 4.6 mph7.4 kmh 30.34 in1027.4 mb - 0.00 in0.0 mm 0.00 in0.0 mm
08:45 AM 49.6°F9.8°C 45.6°F7.6°C 86% 4.6 mph NE7.4 kmh NE 5.8 mph9.3 kmh 30.34 in1027.4 mb - 0.00 in0.0 mm 0.00 in0.0 mm
08:40 AM 49.2°F9.6°C 45.5°F7.5°C 87% 5.8 mph NE9.3 kmh NE 9.2 mph14.8 kmh 30.34 in1027.4 mb - 0.00 in0.0 mm 0.00 in0.0 mm
08:30 AM 48.1°F8.9°C 45.3°F7.4°C 90% 2.3 mph NE3.7 kmh NE 5.8 mph9.3 kmh 30.34 in1027.4 mb - 0.00 in0.0 mm 0.00 in0.0 mm
08:20 AM 45.5°F7.5°C 43.6°F6.4°C 93% 1.2 mph NNW1.9 kmh NNW 2.3 mph3.7 kmh 30.34 in1027.4 mb - 0.00 in0.0 mm 0.00 in0.0 mm
08:15 AM 44.5°F6.9°C 42.6°F5.9°C 93% 1.2 mph NNW1.9 kmh NNW 2.3 mph3.7 kmh 30.34 in1027.4 mb - 0.00 in0.0 mm 0.00 in0.0 mm
08:10 AM 43.7°F6.5°C 41.5°F5.3°C 92% 1.2 mph NNW1.9 kmh NNW 1.2 mph1.9 kmh 30.33 in1027.1 mb - 0.00 in0.0 mm 0.00 in0.0 mm
08:00 AM 43.0°F6.1°C 40.8°F4.9°C 92% Calm Calm -- 30.33 in1027.1 mb - 0.00 in0.0 mm 0.00 in0.0 mm
07:50 AM 43.4°F6.3°C 41.5°F5.3°C 93% 1.2 mph NNW1.9 kmh NNW 2.3 mph3.7 kmh 30.32 in1026.8 mb - 0.00 in0.0 mm 0.00 in0.0 mm
07:45 AM 43.2°F6.2°C 41.0°F5.0°C 92% 1.2 mph NNW1.9 kmh NNW 1.2 mph1.9 kmh 30.32 in1026.8 mb - 0.00 in0.0 mm 0.00 in0.0 mm
07:40 AM 43.1°F6.2°C 40.9°F4.9°C 92% 2.3 mph NNW3.7 kmh NNW 2.3 mph3.7 kmh 30.32 in1026.8 mb - 0.00 in0.0 mm 0.00 in0.0 mm
07:30 AM 43.5°F6.4°C 41.3°F5.2°C 92% 2.3 mph NNW3.7 kmh NNW 3.5 mph5.6 kmh 30.32 in1026.8 mb - 0.00 in0.0 mm 0.00 in0.0 mm
07:20 AM 43.5°F6.4°C 41.4°F5.2°C 92% 1.2 mph NNW1.9 kmh NNW 1.2 mph1.9 kmh 30.31 in1026.4 mb - 0.00 in0.0 mm 0.00 in0.0 mm
07:15 AM 43.7°F6.5°C 41.5°F5.3°C 92% 1.2 mph NNW1.9 kmh NNW 1.2 mph1.9 kmh 30.31 in1026.4 mb - 0.00 in0.0 mm 0.00 in0.0 mm
07:10 AM 43.7°F6.5°C 41.5°F5.3°C 92% 1.2 mph NNW1.9 kmh NNW 1.2 mph1.9 kmh 30.31 in1026.4 mb - 0.00 in0.0 mm 0.00 in0.0 mm
07:00 AM 44.0°F6.7°C 41.8°F5.4°C 92% 2.3 mph NNW3.7 kmh NNW 2.3 mph3.7 kmh 30.30 in1026.1 mb - 0.00 in0.0 mm 0.00 in0.0 mm
06:50 AM 43.9°F6.6°C 41.5°F5.3°C 91% 1.2 mph NNW1.9 kmh NNW 2.3 mph3.7 kmh 30.30 in1026.1 mb - 0.00 in0.0 mm 0.00 in0.0 mm
06:45 AM 44.1°F6.7°C 41.6°F5.3°C 91% 1.2 mph NNW1.9 kmh NNW 2.3 mph3.7 kmh 30.30 in1026.1 mb - 0.00 in0.0 mm 0.00 in0.0 mm
06:40 AM 44.2°F6.8°C 41.8°F5.4°C 91% 1.2 mph NNW1.9 kmh NNW 1.2 mph1.9 kmh 30.30 in1026.1 mb - 0.00 in0.0 mm 0.00 in0.0 mm
06:30 AM 44.9°F7.2°C 42.1°F5.6°C 90% 1.2 mph NNW1.9 kmh NNW 2.3 mph3.7 kmh 30.30 in1026.1 mb - 0.00 in0.0 mm 0.00 in0.0 mm
06:20 AM 45.2°F7.3°C 42.7°F5.9°C 91% 2.3 mph NNW3.7 kmh NNW 2.3 mph3.7 kmh 30.30 in1026.1 mb - 0.00 in0.0 mm 0.00 in0.0 mm
06:15 AM 45.0°F7.2°C 42.5°F5.8°C 91% 2.3 mph NNW3.7 kmh NNW 2.3 mph3.7 kmh 30.30 in1026.1 mb - 0.00 in0.0 mm 0.00 in0.0 mm
06:10 AM 44.9°F7.2°C 42.4°F5.8°C 91% 2.3 mph NNW3.7 kmh NNW 2.3 mph3.7 kmh 30.29 in1025.7 mb - 0.00 in0.0 mm 0.00 in0.0 mm
06:00 AM 45.0°F7.2°C 42.6°F5.9°C 91% 1.2 mph NNW1.9 kmh NNW 2.3 mph3.7 kmh 30.29 in1025.7 mb - 0.00 in0.0 mm 0.00 in0.0 mm
05:50 AM 45.1°F7.3°C 42.3°F5.7°C 90% 1.2 mph NNW1.9 kmh NNW 2.3 mph3.7 kmh 30.29 in1025.7 mb - 0.00 in0.0 mm 0.00 in0.0 mm
05:45 AM 45.1°F7.3°C 42.3°F5.7°C 90% 1.2 mph NNW1.9 kmh NNW 2.3 mph3.7 kmh 30.29 in1025.7 mb - 0.00 in0.0 mm 0.00 in0.0 mm
05:40 AM 45.2°F7.3°C 42.5°F5.8°C 90% 1.2 mph NNW1.9 kmh NNW 2.3 mph3.7 kmh 30.28 in1025.4 mb - 0.00 in0.0 mm 0.00 in0.0 mm
05:30 AM 45.4°F7.4°C 42.3°F5.7°C 89% 1.2 mph NNW1.9 kmh NNW 2.3 mph3.7 kmh 30.28 in1025.4 mb - 0.00 in0.0 mm 0.00 in0.0 mm
05:20 AM 45.8°F7.7°C 43.0°F6.1°C 90% Calm Calm 1.2 mph1.9 kmh 30.28 in1025.4 mb - 0.00 in0.0 mm 0.00 in0.0 mm
05:15 AM 45.6°F7.6°C 42.8°F6.0°C 90% 2.3 mph NNW3.7 kmh NNW 3.5 mph5.6 kmh 30.28 in1025.4 mb - 0.00 in0.0 mm 0.00 in0.0 mm
05:10 AM 45.5°F7.5°C 42.5°F5.8°C 89% 1.2 mph NNW1.9 kmh NNW 2.3 mph3.7 kmh 30.28 in1025.4 mb - 0.00 in0.0 mm 0.00 in0.0 mm
05:00 AM 45.5°F7.5°C 42.4°F5.8°C 89% 1.2 mph NNW1.9 kmh NNW 2.3 mph3.7 kmh 30.27 in1025.1 mb - 0.00 in0.0 mm 0.00 in0.0 mm
04:50 AM 45.7°F7.6°C 42.3°F5.7°C 88% 2.3 mph NNW3.7 kmh NNW 2.3 mph3.7 kmh 30.27 in1025.1 mb - 0.00 in0.0 mm 0.00 in0.0 mm
04:45 AM 45.9°F7.7°C 42.6°F5.9°C 88% 2.3 mph NNW3.7 kmh NNW 3.5 mph5.6 kmh 30.27 in1025.1 mb - 0.00 in0.0 mm 0.00 in0.0 mm
04:40 AM 46.0°F7.8°C 42.6°F5.9°C 88% 1.2 mph NNW1.9 kmh NNW 2.3 mph3.7 kmh 30.27 in1025.1 mb - 0.00 in0.0 mm 0.00 in0.0 mm
04:30 AM 46.9°F8.3°C 43.0°F6.1°C 86% 1.2 mph NNW1.9 kmh NNW 2.3 mph3.7 kmh 30.26 in1024.7 mb - 0.00 in0.0 mm 0.00 in0.0 mm
04:20 AM 46.9°F8.3°C 42.7°F5.9°C 85% 1.2 mph NNW1.9 kmh NNW 1.2 mph1.9 kmh 30.26 in1024.7 mb - 0.00 in0.0 mm 0.00 in0.0 mm
04:15 AM 47.5°F8.6°C 43.6°F6.4°C 86% 1.2 mph NNW1.9 kmh NNW 2.3 mph3.7 kmh 30.27 in1025.1 mb - 0.00 in0.0 mm 0.00 in0.0 mm
04:10 AM 47.2°F8.4°C 43.2°F6.2°C 86% 1.2 mph NNW1.9 kmh NNW 2.3 mph3.7 kmh 30.27 in1025.1 mb - 0.00 in0.0 mm 0.00 in0.0 mm
04:00 AM 47.5°F8.6°C 42.9°F6.1°C 84% Calm Calm -- 30.27 in1025.1 mb - 0.00 in0.0 mm 0.00 in0.0 mm
03:50 AM 48.5°F9.2°C 43.3°F6.3°C 82% 1.2 mph NNW1.9 kmh NNW 2.3 mph3.7 kmh 30.27 in1025.1 mb - 0.00 in0.0 mm 0.00 in0.0 mm
03:45 AM 49.1°F9.5°C 43.8°F6.6°C 82% 1.2 mph NNW1.9 kmh NNW 2.3 mph3.7 kmh 30.27 in1025.1 mb - 0.00 in0.0 mm 0.00 in0.0 mm
03:40 AM 49.2°F9.6°C 43.6°F6.4°C 81% 2.3 mph N3.7 kmh N 2.3 mph3.7 kmh 30.27 in1025.1 mb - 0.00 in0.0 mm 0.00 in0.0 mm
03:30 AM 49.9°F9.9°C 44.3°F6.8°C 81% 2.3 mph N3.7 kmh N 3.5 mph5.6 kmh 30.27 in1025.1 mb - 0.00 in0.0 mm 0.00 in0.0 mm
03:20 AM 50.4°F10.2°C 44.5°F6.9°C 80% 2.3 mph N3.7 kmh N 2.3 mph3.7 kmh 30.27 in1025.1 mb - 0.00 in0.0 mm 0.00 in0.0 mm
03:15 AM 50.4°F10.2°C 44.5°F6.9°C 80% 3.5 mph NNE5.6 kmh NNE 3.5 mph5.6 kmh 30.27 in1025.1 mb - 0.00 in0.0 mm 0.00 in0.0 mm
03:10 AM 50.4°F10.2°C 44.2°F6.8°C 79% 4.6 mph NNE7.4 kmh NNE 5.8 mph9.3 kmh 30.27 in1025.1 mb - 0.00 in0.0 mm 0.00 in0.0 mm
03:00 AM 50.4°F10.2°C 44.5°F6.9°C 80% 2.3 mph NNE3.7 kmh NNE 3.5 mph5.6 kmh 30.27 in1025.1 mb - 0.00 in0.0 mm 0.00 in0.0 mm
02:50 AM 50.7°F10.4°C 44.5°F6.9°C 79% 2.3 mph N3.7 kmh N 3.5 mph5.6 kmh 30.27 in1025.1 mb - 0.00 in0.0 mm 0.00 in0.0 mm
02:45 AM 50.8°F10.4°C 44.5°F6.9°C 79% 2.3 mph N3.7 kmh N 4.6 mph7.4 kmh 30.27 in1025.1 mb - 0.00 in0.0 mm 0.00 in0.0 mm
02:40 AM 50.9°F10.5°C 44.6°F7.0°C 79% 2.3 mph N3.7 kmh N 2.3 mph3.7 kmh 30.27 in1025.1 mb - 0.00 in0.0 mm 0.00 in0.0 mm
02:30 AM 51.2°F10.7°C 44.6°F7.0°C 78% 3.5 mph N5.6 kmh N 4.6 mph7.4 kmh 30.27 in1025.1 mb - 0.00 in0.0 mm 0.00 in0.0 mm
02:20 AM 51.5°F10.8°C 44.5°F6.9°C 77% 4.6 mph N7.4 kmh N 4.6 mph7.4 kmh 30.27 in1025.1 mb - 0.00 in0.0 mm 0.00 in0.0 mm
02:15 AM 51.7°F10.9°C 44.7°F7.1°C 77% 5.8 mph N9.3 kmh N 5.8 mph9.3 kmh 30.27 in1025.1 mb - 0.00 in0.0 mm 0.00 in0.0 mm
02:10 AM 51.8°F11.0°C 44.8°F7.1°C 77% 4.6 mph N7.4 kmh N 6.9 mph11.1 kmh 30.26 in1024.7 mb - 0.00 in0.0 mm 0.00 in0.0 mm
02:00 AM 51.9°F11.1°C 44.9°F7.2°C 77% 5.8 mph N9.3 kmh N 6.9 mph11.1 kmh 30.26 in1024.7 mb - 0.00 in0.0 mm 0.00 in0.0 mm
01:50 AM 52.1°F11.2°C 45.1°F7.3°C 77% 5.8 mph N9.3 kmh N 6.9 mph11.1 kmh 30.27 in1025.1 mb - 0.00 in0.0 mm 0.00 in0.0 mm
01:45 AM 52.1°F11.2°C 45.1°F7.3°C 77% 5.8 mph N9.3 kmh N 8.1 mph13.0 kmh 30.27 in1025.1 mb - 0.00 in0.0 mm 0.00 in0.0 mm
01:40 AM 52.2°F11.2°C 44.9°F7.2°C 76% 4.6 mph N7.4 kmh N 8.1 mph13.0 kmh 30.27 in1025.1 mb - 0.00 in0.0 mm 0.00 in0.0 mm
01:30 AM 52.5°F11.4°C 45.2°F7.3°C 76% 3.5 mph N5.6 kmh N 4.6 mph7.4 kmh 30.27 in1025.1 mb - 0.00 in0.0 mm 0.00 in0.0 mm
01:20 AM 52.8°F11.6°C 45.1°F7.3°C 75% 3.5 mph N5.6 kmh N 4.6 mph7.4 kmh 30.27 in1025.1 mb - 0.00 in0.0 mm 0.00 in0.0 mm
01:15 AM 53.0°F11.7°C 45.3°F7.4°C 75% 3.5 mph N5.6 kmh N 4.6 mph7.4 kmh 30.27 in1025.1 mb - 0.00 in0.0 mm 0.00 in0.0 mm
01:10 AM 53.2°F11.8°C 45.5°F7.5°C 75% 5.8 mph N9.3 kmh N 6.9 mph11.1 kmh 30.27 in1025.1 mb - 0.00 in0.0 mm 0.00 in0.0 mm
01:00 AM 53.3°F11.8°C 45.6°F7.6°C 75% 5.8 mph N9.3 kmh N 6.9 mph11.1 kmh 30.26 in1024.7 mb - 0.00 in0.0 mm 0.00 in0.0 mm
12:50 AM 53.6°F12.0°C 45.5°F7.5°C 74% 6.9 mph N11.1 kmh N 9.2 mph14.8 kmh 30.26 in1024.7 mb - 0.00 in0.0 mm 0.00 in0.0 mm
12:45 AM 53.6°F12.0°C 45.5°F7.5°C 74% 6.9 mph N11.1 kmh N 8.1 mph13.0 kmh 30.26 in1024.7 mb - 0.00 in0.0 mm 0.00 in0.0 mm
12:40 AM 53.8°F12.1°C 45.7°F7.6°C 74% 6.9 mph N11.1 kmh N 8.1 mph13.0 kmh 30.26 in1024.7 mb - 0.00 in0.0 mm 0.00 in0.0 mm
12:30 AM 54.2°F12.3°C 45.7°F7.6°C 73% 5.8 mph N9.3 kmh N 8.1 mph13.0 kmh 30.26 in1024.7 mb - 0.00 in0.0 mm 0.00 in0.0 mm
12:20 AM 54.4°F12.4°C 45.9°F7.7°C 73% 5.8 mph N9.3 kmh N 9.2 mph14.8 kmh 30.26 in1024.7 mb - 0.00 in0.0 mm 0.00 in0.0 mm
12:15 AM 54.6°F12.6°C 46.1°F7.8°C 73% 6.9 mph N11.1 kmh N 8.1 mph13.0 kmh 30.26 in1024.7 mb - 0.00 in0.0 mm 0.00 in0.0 mm
12:10 AM 54.8°F12.7°C 45.9°F7.7°C 72% 9.2 mph N14.8 kmh N 13.8 mph22.2 kmh 30.26 in1024.7 mb - 0.00 in0.0 mm 0.00 in0.0 mm
12:00 AM 55.1°F12.8°C 46.3°F7.9°C 72% 9.2 mph N14.8 kmh N 11.5 mph18.5 kmh 30.26 in1024.7 mb - 0.00 in0.0 mm 0.00 in0.0 mm